Time;durP1;ratioP1;P1;durP2;ratioP2;P2;SDS_P1;SDS_P2;PMS_P1;PMS_P2;Temp;Humidity;BMP_temperature;BMP_pressure;BME280_temperature;BME280_humidity;BME280_pressure;Samples;Min_cycle;Max_cycle;Signal;HPM_P1;HPM_P2
2022/07/20 00:01:07;;;;;;;8.05;5.55;;;25.30;55.30;;;;;;5110776;28;20035;-76
2022/07/20 00:03:32;;;;;;;9.80;5.55;;;25.20;55.20;;;;;;5112968;28;20024;-78
2022/07/20 00:05:58;;;;;;;8.95;5.53;;;25.20;55.30;;;;;;5113254;28;20019;-76
2022/07/20 00:11:20;;;;;;;8.32;6.07;;;25.10;55.00;;;;;;5112789;28;20059;-78
2022/07/20 00:13:48;;;;;;;7.43;5.22;;;25.10;55.30;;;;;;5111874;28;20027;-76
2022/07/20 00:16:13;;;;;;;8.07;5.10;;;25.10;55.40;;;;;;5112148;28;20071;-76
2022/07/20 00:18:39;;;;;;;8.57;5.68;;;25.00;55.20;;;;;;5110187;28;20052;-76
2022/07/20 00:21:05;;;;;;;7.20;5.78;;;25.00;55.40;;;;;;5111350;28;20049;-76
2022/07/20 00:23:31;;;;;;;6.80;5.03;;;25.00;55.30;;;;;;5112676;28;20448;-76
2022/07/20 00:25:57;;;;;;;7.80;5.28;;;25.10;55.50;;;;;;5111872;28;20059;-77
2022/07/20 00:28:22;;;;;;;8.93;5.20;;;25.10;55.30;;;;;;5111006;28;20106;-77
2022/07/20 00:30:48;;;;;;;8.20;5.22;;;25.00;54.90;;;;;;5113037;28;20028;-76
2022/07/20 00:33:14;;;;;;;8.15;5.63;;;25.00;55.10;;;;;;5092929;28;20553;-77
2022/07/20 00:35:40;;;;;;;9.07;5.28;;;25.00;55.20;;;;;;5110532;28;20539;-78
2022/07/20 00:38:05;;;;;;;8.48;5.28;;;25.00;55.10;;;;;;5122942;28;20511;-76
2022/07/20 00:40:31;;;;;;;7.45;5.55;;;25.00;55.70;;;;;;5116324;28;20023;-76
2022/07/20 00:42:57;;;;;;;7.07;5.28;;;25.00;55.60;;;;;;5094751;28;20031;-76
2022/07/20 00:45:22;;;;;;;7.70;5.13;;;25.00;55.30;;;;;;5112190;28;20039;-77
2022/07/20 00:47:48;;;;;;;6.55;5.00;;;24.90;55.50;;;;;;5111844;28;20475;-78
2022/07/20 00:50:14;;;;;;;7.63;5.38;;;24.90;55.70;;;;;;5111990;28;20542;-77
2022/07/20 00:52:41;;;;;;;7.63;5.47;;;24.90;55.90;;;;;;5111074;28;20019;-77
2022/07/20 00:55:10;;;;;;;7.60;5.40;;;24.90;55.90;;;;;;5112291;28;20044;-79
2022/07/20 00:57:38;;;;;;;8.70;5.45;;;24.80;56.10;;;;;;5111527;28;20075;-78
2022/07/20 01:00:07;;;;;;;12.50;5.57;;;24.80;55.80;;;;;;5111657;28;20484;-77
2022/07/20 01:02:33;;;;;;;7.32;5.35;;;24.80;55.70;;;;;;5110081;28;20088;-78
2022/07/20 01:04:59;;;;;;;9.93;5.13;;;24.80;56.00;;;;;;5115809;28;20051;-76
2022/07/20 01:07:25;;;;;;;9.05;5.03;;;24.70;55.60;;;;;;5116850;28;20035;-77
2022/07/20 01:09:51;;;;;;;8.20;5.65;;;24.70;55.50;;;;;;5102760;28;20019;-77
2022/07/20 01:12:17;;;;;;;8.20;5.22;;;24.70;55.70;;;;;;5123748;28;20020;-77
2022/07/20 01:14:43;;;;;;;7.53;4.80;;;24.70;55.30;;;;;;5113906;28;20027;-80
2022/07/20 01:17:10;;;;;;;8.30;5.32;;;24.70;55.20;;;;;;5112372;28;20032;-78
2022/07/20 01:19:38;;;;;;;7.10;4.88;;;24.70;55.20;;;;;;5111614;28;20084;-77
2022/07/20 01:22:04;;;;;;;7.07;4.97;;;24.70;55.50;;;;;;5112324;28;20027;-77
2022/07/20 01:24:30;;;;;;;7.80;6.32;;;24.60;55.40;;;;;;5109805;28;20024;-76
2022/07/20 01:26:56;;;;;;;7.10;4.80;;;24.60;55.20;;;;;;5110875;28;20028;-77
2022/07/20 01:29:21;;;;;;;10.10;5.18;;;24.60;55.30;;;;;;5110057;28;20024;-77
2022/07/20 01:31:47;;;;;;;8.32;5.03;;;24.60;55.20;;;;;;5110926;28;20080;-77
2022/07/20 01:34:13;;;;;;;8.20;5.50;;;24.60;55.30;;;;;;5110213;28;20122;-77
2022/07/20 01:36:39;;;;;;;10.70;5.32;;;24.50;55.20;;;;;;5111142;28;20174;-77
2022/07/20 01:39:04;;;;;;;7.30;5.53;;;24.50;55.40;;;;;;5109476;28;20091;-77
2022/07/20 01:41:30;;;;;;;8.38;5.10;;;24.50;55.50;;;;;;5108409;28;20450;-78
2022/07/20 01:43:56;;;;;;;8.77;5.82;;;24.50;55.40;;;;;;5109159;28;20414;-78
2022/07/20 01:46:22;;;;;;;7.22;5.25;;;24.50;55.30;;;;;;5108420;28;20024;-78
2022/07/20 01:48:47;;;;;;;6.10;4.53;;;24.50;55.50;;;;;;5109499;28;20451;-78
2022/07/20 01:51:13;;;;;;;8.52;5.20;;;24.50;55.70;;;;;;5110206;28;20041;-78
2022/07/20 01:53:38;;;;;;;7.55;5.28;;;24.40;55.80;;;;;;5110736;28;20473;-77
2022/07/20 01:56:05;;;;;;;7.70;5.80;;;24.40;55.90;;;;;;5109843;28;20023;-79
2022/07/20 01:58:30;;;;;;;13.50;5.50;;;24.40;55.80;;;;;;5109424;28;20066;-77
2022/07/20 02:00:56;;;;;;;7.60;5.32;;;24.40;55.80;;;;;;5109798;28;20451;-78
2022/07/20 02:03:22;;;;;;;7.47;5.28;;;24.40;56.00;;;;;;5109557;28;20084;-78
2022/07/20 02:05:47;;;;;;;7.15;4.65;;;24.30;56.00;;;;;;5107348;28;20020;-77
2022/07/20 02:08:13;;;;;;;9.60;5.05;;;24.40;56.10;;;;;;5108951;28;20028;-78
2022/07/20 02:10:39;;;;;;;6.15;4.88;;;24.40;56.00;;;;;;5110667;28;20483;-77
2022/07/20 02:13:05;;;;;;;8.20;5.22;;;24.30;56.10;;;;;;5109611;28;20040;-77
2022/07/20 02:18:14;;;;;;;8.10;5.20;;;24.30;56.30;;;;;;5110624;28;20036;-77
2022/07/20 02:20:41;;;;;;;8.00;5.07;;;24.30;56.70;;;;;;5108922;28;20035;-78
2022/07/20 02:23:09;;;;;;;7.07;5.15;;;24.20;56.50;;;;;;5109706;28;20241;-77
2022/07/20 02:25:36;;;;;;;10.32;5.55;;;24.20;56.60;;;;;;5107337;28;20027;-77
2022/07/20 02:28:05;;;;;;;7.38;5.47;;;24.20;56.70;;;;;;5111951;28;20141;-77
2022/07/20 02:30:32;;;;;;;9.30;5.88;;;24.20;57.10;;;;;;5110759;28;20069;-78
2022/07/20 02:32:58;;;;;;;7.38;5.30;;;24.20;57.10;;;;;;5110432;28;20036;-76
2022/07/20 02:35:23;;;;;;;9.10;5.70;;;24.10;57.10;;;;;;5110954;28;20104;-76
2022/07/20 02:37:49;;;;;;;8.27;5.20;;;24.10;57.20;;;;;;5112070;28;20079;-77
2022/07/20 02:40:15;;;;;;;8.50;5.35;;;24.10;57.50;;;;;;5110291;28;20372;-79
2022/07/20 02:42:41;;;;;;;8.27;5.63;;;24.00;57.60;;;;;;5109689;28;20433;-77
2022/07/20 02:45:08;;;;;;;9.10;5.53;;;24.10;58.00;;;;;;5112798;28;20028;-77
2022/07/20 02:47:42;;;;;;;7.55;5.65;;;24.00;57.60;;;;;;5110108;28;20020;-76
2022/07/20 02:50:08;;;;;;;8.43;6.22;;;23.90;57.60;;;;;;5109541;28;20023;-77
2022/07/20 02:52:34;;;;;;;11.45;6.20;;;23.90;57.90;;;;;;5112515;28;20093;-77
2022/07/20 02:54:59;;;;;;;8.95;5.72;;;23.90;58.20;;;;;;5111207;28;20511;-77
2022/07/20 02:57:25;;;;;;;8.90;6.00;;;23.90;58.40;;;;;;5109476;28;20059;-78
2022/07/20 02:59:51;;;;;;;8.35;5.65;;;23.80;58.40;;;;;;5111822;28;20403;-78
2022/07/20 03:02:16;;;;;;;8.23;5.88;;;23.80;58.00;;;;;;5113920;28;20387;-77
2022/07/20 03:04:42;;;;;;;9.88;5.57;;;23.70;58.30;;;;;;5112601;28;20399;-77
2022/07/20 03:07:08;;;;;;;9.02;5.93;;;23.70;59.10;;;;;;5095449;28;20488;-77
2022/07/20 03:09:34;;;;;;;8.35;5.68;;;23.70;58.40;;;;;;5115857;28;20027;-77
2022/07/20 03:12:00;;;;;;;7.85;5.60;;;23.70;58.20;;;;;;5114191;28;20368;-77
2022/07/20 03:14:25;;;;;;;8.18;5.20;;;23.70;58.30;;;;;;5112416;28;20485;-79
2022/07/20 03:16:51;;;;;;;6.47;5.10;;;23.70;58.40;;;;;;5113338;28;20031;-76
2022/07/20 03:19:17;;;;;;;8.02;5.72;;;23.70;58.40;;;;;;5093935;28;20040;-77
2022/07/20 03:21:43;;;;;;;8.93;5.78;;;23.60;58.50;;;;;;5113434;28;20012;-76
2022/07/20 03:24:08;;;;;;;11.25;5.85;;;23.60;58.60;;;;;;5112002;28;20074;-77
2022/07/20 03:26:34;;;;;;;7.60;4.93;;;23.60;58.90;;;;;;5113122;28;20024;-77
2022/07/20 03:29:00;;;;;;;7.15;5.70;;;23.60;58.70;;;;;;5113707;28;20481;-78
2022/07/20 03:31:25;;;;;;;7.30;5.32;;;23.60;58.90;;;;;;5113405;28;20297;-76
2022/07/20 03:33:51;;;;;;;9.70;5.20;;;23.60;58.90;;;;;;5114048;28;20059;-76
2022/07/20 03:36:17;;;;;;;9.48;5.32;;;23.60;58.80;;;;;;5112370;28;20060;-78
2022/07/20 03:38:42;;;;;;;9.38;5.45;;;23.60;58.70;;;;;;5113124;28;20081;-77
2022/07/20 03:41:08;;;;;;;8.05;5.20;;;23.60;58.80;;;;;;5114011;28;20027;-78
2022/07/20 03:43:33;;;;;;;8.05;5.43;;;23.60;58.90;;;;;;5112676;28;20496;-77
2022/07/20 03:45:59;;;;;;;7.55;5.22;;;23.60;58.90;;;;;;5112454;28;20491;-76
2022/07/20 03:48:25;;;;;;;12.63;5.40;;;23.60;58.90;;;;;;5110601;28;20019;-76
2022/07/20 03:50:50;;;;;;;10.90;5.65;;;23.50;59.00;;;;;;5113063;28;20479;-76
2022/07/20 03:53:16;;;;;;;9.57;5.18;;;23.50;59.20;;;;;;5113062;28;20582;-76
2022/07/20 03:55:42;;;;;;;7.30;4.50;;;23.60;59.10;;;;;;5112508;28;20032;-76
2022/07/20 03:58:07;;;;;;;8.20;5.28;;;23.50;59.20;;;;;;5113330;28;20028;-77
2022/07/20 04:00:33;;;;;;;9.40;5.28;;;23.50;59.30;;;;;;5112067;28;20035;-78
2022/07/20 04:02:59;;;;;;;10.85;5.10;;;23.50;59.30;;;;;;5114229;28;20491;-78
2022/07/20 04:05:25;;;;;;;7.68;4.85;;;23.50;59.20;;;;;;5113344;28;20506;-76
2022/07/20 04:07:50;;;;;;;9.43;5.72;;;23.50;59.30;;;;;;5115216;28;20020;-77
2022/07/20 04:10:16;;;;;;;6.88;5.25;;;23.50;59.30;;;;;;5112679;28;20031;-76
2022/07/20 04:12:41;;;;;;;10.48;5.68;;;23.50;59.50;;;;;;5113575;28;20020;-76
2022/07/20 04:15:08;;;;;;;7.57;4.85;;;23.50;59.60;;;;;;5112242;28;20452;-77
2022/07/20 04:17:33;;;;;;;6.85;4.47;;;23.50;59.80;;;;;;5095366;28;20031;-77
2022/07/20 04:19:59;;;;;;;10.57;6.63;;;23.50;60.00;;;;;;5111978;28;20035;-79
2022/07/20 04:22:25;;;;;;;9.32;5.78;;;23.50;60.10;;;;;;5112520;28;20047;-77
2022/07/20 04:24:50;;;;;;;10.00;5.70;;;23.50;60.40;;;;;;5095087;28;20024;-78
2022/07/20 04:27:16;;;;;;;9.60;4.95;;;23.50;60.20;;;;;;5111449;28;20114;-77
2022/07/20 04:29:42;;;;;;;11.75;5.95;;;23.50;60.20;;;;;;5111466;28;20118;-77
2022/07/20 04:32:08;;;;;;;9.88;5.63;;;23.50;60.30;;;;;;5111867;28;20115;-77
2022/07/20 04:34:34;;;;;;;10.70;5.07;;;23.50;60.50;;;;;;5112623;28;20036;-77
2022/07/20 04:36:59;;;;;;;9.27;5.30;;;23.50;60.50;;;;;;5113003;28;20112;-77
2022/07/20 04:39:26;;;;;;;11.23;5.45;;;23.50;60.60;;;;;;5113841;28;20077;-76
2022/07/20 04:41:52;;;;;;;8.85;5.80;;;23.50;60.70;;;;;;5111437;28;20028;-77
2022/07/20 04:44:18;;;;;;;12.65;5.65;;;23.50;60.70;;;;;;5112410;28;20076;-77
2022/07/20 04:46:43;;;;;;;10.52;5.85;;;23.50;60.90;;;;;;5112415;28;20110;-76
2022/07/20 04:49:09;;;;;;;10.02;5.72;;;23.50;60.90;;;;;;5111871;28;20157;-76
2022/07/20 04:51:36;;;;;;;9.70;5.63;;;23.60;60.90;;;;;;5112802;28;20375;-76
2022/07/20 04:54:02;;;;;;;11.65;5.65;;;23.60;61.00;;;;;;5112729;28;20546;-76
2022/07/20 04:56:28;;;;;;;10.70;5.60;;;23.60;61.00;;;;;;5114282;28;20024;-78
2022/07/20 04:58:55;;;;;;;14.60;6.32;;;23.70;61.10;;;;;;5111185;28;20107;-76
2022/07/20 05:01:22;;;;;;;9.55;5.05;;;23.70;61.00;;;;;;5115169;28;20034;-76
2022/07/20 05:03:48;;;;;;;8.38;5.82;;;23.60;60.60;;;;;;5115963;28;20082;-77
2022/07/20 05:06:14;;;;;;;12.45;5.38;;;23.60;60.80;;;;;;5111798;28;20484;-77
2022/07/20 05:08:40;;;;;;;9.40;5.57;;;23.70;61.30;;;;;;5110925;28;20166;-76
2022/07/20 05:11:06;;;;;;;9.27;5.85;;;23.70;60.90;;;;;;5111058;28;20032;-76
2022/07/20 05:13:31;;;;;;;15.25;5.90;;;23.70;60.90;;;;;;5112754;28;20027;-78
2022/07/20 05:15:57;;;;;;;8.57;5.05;;;23.70;60.70;;;;;;5113134;28;20471;-76
2022/07/20 05:18:23;;;;;;;12.57;5.40;;;23.70;60.40;;;;;;5110502;28;20067;-76
2022/07/20 05:20:48;;;;;;;10.60;5.65;;;23.70;60.70;;;;;;5110407;28;20111;-77
2022/07/20 05:23:14;;;;;;;10.68;5.68;;;23.70;60.90;;;;;;5111693;28;20027;-76
2022/07/20 05:25:40;;;;;;;10.93;5.82;;;23.70;60.60;;;;;;5112099;28;20065;-77
2022/07/20 05:28:06;;;;;;;10.23;5.50;;;23.80;60.60;;;;;;5113438;28;20024;-76
2022/07/20 05:30:32;;;;;;;9.52;4.82;;;23.70;60.30;;;;;;5110863;28;20024;-76
2022/07/20 05:32:58;;;;;;;8.50;5.20;;;23.80;60.20;;;;;;5111430;28;20030;-75
2022/07/20 05:35:24;;;;;;;10.23;5.25;;;23.80;60.20;;;;;;5110022;28;20028;-76
2022/07/20 05:37:50;;;;;;;6.93;5.13;;;23.90;60.10;;;;;;5112059;28;20028;-77
2022/07/20 05:40:16;;;;;;;12.02;5.28;;;23.90;60.40;;;;;;5110510;28;20028;-76
2022/07/20 05:42:42;;;;;;;8.45;5.32;;;23.90;59.90;;;;;;5111665;28;20055;-76
2022/07/20 05:45:08;;;;;;;7.75;4.93;;;23.90;60.00;;;;;;5109414;28;20431;-76
2022/07/20 05:47:34;;;;;;;9.52;5.03;;;24.00;59.90;;;;;;5110698;28;20032;-76
2022/07/20 05:49:59;;;;;;;11.27;5.80;;;24.00;59.70;;;;;;5111156;28;20108;-77
2022/07/20 05:52:25;;;;;;;12.43;5.28;;;24.00;59.90;;;;;;5109836;28;20031;-77
2022/07/20 05:54:51;;;;;;;6.68;5.07;;;24.00;59.90;;;;;;5110443;28;20046;-76
2022/07/20 05:57:16;;;;;;;10.73;6.00;;;24.00;59.90;;;;;;5109016;28;20031;-77
2022/07/20 05:59:43;;;;;;;13.20;5.70;;;24.10;59.60;;;;;;5109545;28;20027;-76
2022/07/20 06:02:09;;;;;;;9.43;4.95;;;24.10;59.60;;;;;;5110673;28;20027;-77
2022/07/20 06:04:34;;;;;;;8.30;5.35;;;24.20;59.60;;;;;;5110333;28;20019;-76
2022/07/20 06:07:00;;;;;;;10.02;5.32;;;24.20;59.40;;;;;;5109892;28;20019;-76
2022/07/20 06:09:26;;;;;;;14.43;5.60;;;24.20;59.70;;;;;;5110891;28;20073;-78
2022/07/20 06:11:51;;;;;;;10.20;5.45;;;24.30;59.80;;;;;;5110287;28;20027;-76
2022/07/20 06:14:17;;;;;;;14.90;5.70;;;24.30;59.50;;;;;;5110828;28;20059;-77
2022/07/20 06:16:43;;;;;;;8.25;5.28;;;24.40;59.80;;;;;;5110871;28;20039;-76
2022/07/20 06:19:09;;;;;;;11.07;5.43;;;24.40;59.50;;;;;;5109565;28;20031;-77
2022/07/20 06:21:35;;;;;;;13.80;5.22;;;24.40;59.50;;;;;;5111966;28;20020;-75
2022/07/20 06:24:00;;;;;;;13.05;5.22;;;24.50;60.00;;;;;;5108527;28;20663;-76
2022/07/20 06:26:26;;;;;;;11.15;5.25;;;24.50;60.20;;;;;;5110657;28;20160;-77
2022/07/20 06:28:52;;;;;;;10.68;5.50;;;24.60;59.90;;;;;;5108860;28;20031;-77
2022/07/20 06:31:17;;;;;;;14.85;5.50;;;24.60;60.40;;;;;;5092068;28;20479;-76
2022/07/20 06:33:43;;;;;;;13.23;4.93;;;24.70;60.20;;;;;;5092513;28;20286;-76
2022/07/20 06:36:09;;;;;;;11.32;6.07;;;24.70;60.00;;;;;;5109802;28;20394;-76
2022/07/20 06:38:35;;;;;;;11.40;6.28;;;24.80;59.90;;;;;;5108664;28;20470;-76
2022/07/20 06:41:01;;;;;;;12.02;5.85;;;24.80;59.80;;;;;;5109264;28;20072;-76
2022/07/20 06:43:32;;;;;;;14.85;5.93;;;24.90;60.00;;;;;;5108986;28;20032;-77
2022/07/20 06:46:01;;;;;;;10.13;5.57;;;25.00;59.80;;;;;;5108516;28;20027;-77
2022/07/20 06:48:26;;;;;;;16.75;5.85;;;25.00;59.40;;;;;;5109835;28;20054;-77
2022/07/20 06:50:52;;;;;;;9.93;5.88;;;25.10;59.60;;;;;;5091930;28;20028;-77
2022/07/20 06:53:18;;;;;;;13.90;5.95;;;25.10;59.10;;;;;;5112711;28;20043;-77
2022/07/20 06:55:43;;;;;;;10.43;5.80;;;25.10;59.70;;;;;;5114991;28;20035;-78
2022/07/20 06:58:09;;;;;;;9.02;5.93;;;25.20;59.30;;;;;;5116574;28;20455;-80
2022/07/20 07:00:35;;;;;;;12.02;6.05;;;25.30;59.60;;;;;;5114680;28;21057;-77
2022/07/20 07:03:00;;;;;;;12.52;6.18;;;25.30;59.40;;;;;;5112871;28;20488;-77
2022/07/20 07:05:26;;;;;;;10.82;6.00;;;25.40;59.50;;;;;;5111370;28;20483;-77
2022/07/20 07:07:52;;;;;;;10.35;6.07;;;25.40;59.20;;;;;;5109522;28;20024;-77
2022/07/20 07:10:18;;;;;;;10.23;5.60;;;25.50;59.20;;;;;;5109688;28;20030;-78
2022/07/20 07:12:43;;;;;;;8.57;5.22;;;25.50;59.10;;;;;;5110682;28;20426;-78
2022/07/20 07:15:09;;;;;;;10.35;5.57;;;25.50;58.40;;;;;;5112524;28;20027;-78
2022/07/20 07:17:35;;;;;;;11.30;6.22;;;25.60;58.80;;;;;;5110573;28;20035;-77
2022/07/20 07:20:01;;;;;;;11.85;5.68;;;25.70;58.40;;;;;;5108348;28;20056;-78
2022/07/20 07:22:27;;;;;;;11.80;5.15;;;25.70;58.30;;;;;;5108777;28;20391;-77
2022/07/20 07:24:54;;;;;;;11.70;5.88;;;25.80;58.00;;;;;;5107822;28;20027;-78
2022/07/20 07:27:20;;;;;;;11.73;5.95;;;25.90;58.20;;;;;;5110088;28;20023;-76
2022/07/20 07:29:46;;;;;;;13.10;5.88;;;25.90;57.90;;;;;;5107921;28;20031;-77
2022/07/20 07:32:12;;;;;;;10.15;5.50;;;26.00;58.70;;;;;;5108281;28;20031;-77
2022/07/20 07:34:38;;;;;;;11.07;5.30;;;26.00;58.00;;;;;;5109572;28;20119;-78
2022/07/20 07:37:04;;;;;;;11.57;5.85;;;26.10;58.30;;;;;;5107723;28;20138;-78
2022/07/20 07:39:29;;;;;;;11.38;5.75;;;26.20;58.30;;;;;;5108747;28;20407;-78
2022/07/20 07:41:55;;;;;;;11.27;5.35;;;26.20;57.90;;;;;;5108320;28;20024;-78
2022/07/20 07:44:21;;;;;;;10.05;5.47;;;26.20;58.00;;;;;;5108220;28;20041;-77
2022/07/20 07:46:46;;;;;;;6.88;4.88;;;26.20;57.70;;;;;;5112621;28;20048;-76
2022/07/20 07:49:12;;;;;;;8.93;5.28;;;26.30;57.50;;;;;;5113030;28;20024;-77
2022/07/20 07:51:38;;;;;;;14.32;6.00;;;26.40;57.60;;;;;;5114493;28;20031;-79
2022/07/20 07:54:04;;;;;;;11.98;5.50;;;26.40;58.10;;;;;;5112795;28;20023;-76
2022/07/20 07:56:30;;;;;;;10.07;5.40;;;26.50;57.90;;;;;;5112490;28;20077;-77
2022/07/20 07:58:55;;;;;;;9.55;5.40;;;26.60;58.40;;;;;;5112476;28;20024;-77
2022/07/20 08:01:21;;;;;;;7.13;5.35;;;26.60;57.80;;;;;;5113477;28;20035;-77
2022/07/20 08:03:47;;;;;;;13.48;5.65;;;26.70;57.60;;;;;;5113647;28;20035;-76
2022/07/20 08:06:13;;;;;;;8.73;5.13;;;26.80;57.90;;;;;;5113468;28;20482;-77
2022/07/20 08:08:39;;;;;;;7.35;5.25;;;26.80;57.40;;;;;;5111829;28;20110;-77
2022/07/20 08:11:05;;;;;;;10.10;5.65;;;27.00;57.70;;;;;;5112609;28;20035;-77
2022/07/20 08:13:31;;;;;;;14.77;6.20;;;27.00;57.60;;;;;;5114315;28;20155;-79
2022/07/20 08:15:56;;;;;;;18.02;7.35;;;27.10;57.00;;;;;;5112726;28;20118;-77
2022/07/20 08:18:22;;;;;;;11.13;5.18;;;27.20;56.90;;;;;;5095889;28;20118;-77
2022/07/20 08:20:49;;;;;;;14.43;5.90;;;27.20;57.10;;;;;;5112555;28;20080;-77
2022/07/20 08:23:15;;;;;;;14.02;5.65;;;27.30;57.40;;;;;;5112088;28;20036;-77
2022/07/20 08:25:41;;;;;;;9.15;5.53;;;27.30;57.40;;;;;;5112917;28;20024;-77
2022/07/20 08:28:12;;;;;;;10.68;5.60;;;27.40;57.40;;;;;;5111388;28;20023;-77
2022/07/20 08:30:45;;;;;;;46.38;30.77;;;27.50;57.50;;;;;;5114411;28;20028;-78
2022/07/20 08:33:11;;;;;;;27.83;19.75;;;27.50;57.30;;;;;;5091544;28;20035;-77
2022/07/20 08:35:38;;;;;;;75.25;55.78;;;27.50;57.00;;;;;;5112913;28;20433;-80
2022/07/20 08:38:05;;;;;;;18.30;12.00;;;27.60;57.10;;;;;;5127716;27;20052;-78
2022/07/20 08:40:31;;;;;;;10.95;7.05;;;27.80;57.30;;;;;;5112219;28;20372;-78
2022/07/20 08:42:57;;;;;;;12.70;5.53;;;27.80;57.00;;;;;;5113399;28;20028;-78
2022/07/20 08:45:24;;;;;;;9.63;5.30;;;27.90;56.40;;;;;;5091494;28;20435;-77
2022/07/20 08:47:51;;;;;;;8.25;5.55;;;27.90;57.20;;;;;;5111162;28;20030;-77
2022/07/20 08:50:25;;;;;;;8.00;4.93;;;27.90;57.00;;;;;;5112634;28;20035;-76
2022/07/20 08:52:52;;;;;;;8.43;5.10;;;28.00;57.00;;;;;;5112681;28;20034;-77
2022/07/20 08:55:19;;;;;;;7.07;5.60;;;28.10;57.30;;;;;;5110841;28;20070;-77
2022/07/20 08:57:46;;;;;;;7.45;5.50;;;28.20;57.30;;;;;;5110303;28;20107;-77
2022/07/20 09:00:13;;;;;;;9.20;5.18;;;28.30;57.30;;;;;;5112627;28;20035;-77
2022/07/20 09:03:03;;;;;;;7.45;5.40;;;28.40;57.40;;;;;;5111897;28;20069;-77
2022/07/20 09:05:31;;;;;;;10.20;6.10;;;28.40;56.70;;;;;;5110211;28;20072;-77
2022/07/20 09:07:58;;;;;;;11.02;5.57;;;28.50;56.50;;;;;;5111344;28;20453;-77
2022/07/20 09:10:30;;;;;;;13.93;5.88;;;28.60;56.60;;;;;;5112276;28;20059;-77
2022/07/20 09:12:56;;;;;;;9.82;5.68;;;28.70;56.70;;;;;;5111305;28;20374;-79
2022/07/20 09:15:30;;;;;;;12.32;5.82;;;28.70;56.40;;;;;;5112570;28;20034;-77
2022/07/20 09:18:07;;;;;;;11.00;5.88;;;28.80;56.50;;;;;;5110148;28;20059;-78
2022/07/20 09:20:33;;;;;;;8.80;5.38;;;28.90;56.50;;;;;;5113148;28;20490;-78
2022/07/20 09:23:10;;;;;;;8.23;5.47;;;29.00;56.30;;;;;;5110564;28;20032;-77
2022/07/20 09:25:37;;;;;;;14.45;6.00;;;29.00;56.00;;;;;;5108452;28;20019;-79
2022/07/20 09:28:03;;;;;;;12.40;6.13;;;29.00;56.30;;;;;;5112042;28;20030;-79
2022/07/20 09:30:28;;;;;;;10.43;5.22;;;29.10;56.30;;;;;;5111508;28;20019;-78
2022/07/20 09:33:03;;;;;;;11.43;5.78;;;29.20;56.00;;;;;;5111480;28;20073;-78
2022/07/20 09:35:33;;;;;;;11.95;6.35;;;29.20;56.20;;;;;;5089601;28;20034;-75
2022/07/20 09:38:00;;;;;;;;;;;29.40;56.40;;;;;;5109300;28;20024;-78
2022/07/20 09:40:27;;;;;;;10.75;5.70;;;29.40;56.30;;;;;;5111069;28;19907;-79
2022/07/20 09:42:53;;;;;;;8.50;5.10;;;29.50;56.30;;;;;;5109417;28;20024;-79
2022/07/20 09:45:28;;;;;;;9.80;6.00;;;29.60;56.40;;;;;;5109337;28;20035;-77
2022/07/20 09:48:11;;;;;;;11.00;5.97;;;29.70;55.10;;;;;;5110787;28;20016;-78
2022/07/20 09:50:45;;;;;;;9.32;5.55;;;29.80;54.90;;;;;;5111685;28;20522;-77
2022/07/20 09:53:12;;;;;;;12.63;7.95;;;29.80;55.20;;;;;;5111946;28;20028;-77
2022/07/20 09:55:39;;;;;;;9.68;5.78;;;29.90;55.60;;;;;;5109547;28;20042;-77
2022/07/20 09:58:05;;;;;;;13.27;5.85;;;29.90;55.60;;;;;;5108936;28;20525;-77
2022/07/20 10:00:33;;;;;;;8.48;5.45;;;30.00;55.60;;;;;;5110998;28;20177;-78
2022/07/20 10:03:00;;;;;;;8.60;6.10;;;30.10;55.40;;;;;;5110811;28;20084;-77
2022/07/20 10:05:30;;;;;;;16.65;5.55;;;30.20;55.20;;;;;;5111258;28;20072;-78
2022/07/20 10:07:59;;;;;;;10.70;5.90;;;30.30;55.30;;;;;;5110178;28;20126;-78
2022/07/20 10:10:25;;;;;;;11.40;5.55;;;30.30;55.40;;;;;;5112045;28;20491;-78
2022/07/20 10:12:52;;;;;;;12.50;5.80;;;30.50;54.50;;;;;;5110905;28;20057;-77
2022/07/20 10:15:23;;;;;;;9.65;5.80;;;30.50;55.00;;;;;;5094914;28;20023;-79
2022/07/20 10:17:49;;;;;;;10.43;5.85;;;30.60;54.20;;;;;;5110164;28;20550;-78
2022/07/20 10:20:33;;;;;;;11.32;5.22;;;30.60;54.70;;;;;;5108236;28;20031;-77
2022/07/20 10:23:24;;;;;;;8.32;4.82;;;30.80;54.40;;;;;;5110782;28;20503;-77
2022/07/20 10:25:49;;;;;;;9.52;5.07;;;30.90;53.90;;;;;;5111768;28;20032;-78
2022/07/20 10:28:28;;;;;;;11.48;5.20;;;31.00;52.50;;;;;;5094093;28;20046;-78
2022/07/20 10:31:02;;;;;;;9.45;5.38;;;31.10;52.40;;;;;;5109706;28;20467;-77
2022/07/20 10:33:29;;;;;;;9.38;5.30;;;31.10;53.80;;;;;;5110756;28;20149;-77
2022/07/20 10:36:41;;;;;;;8.55;5.07;;;31.20;53.30;;;;;;5110178;28;20023;-77
2022/07/20 10:38:41;;;;;;;9.23;5.18;;;31.30;53.00;;;;;;5110226;28;20127;-77
2022/07/20 10:44:30;;;;;;;9.25;5.07;;;31.40;52.80;;;;;;5110242;28;20023;-78
2022/07/20 10:46:56;;;;;;;7.43;4.95;;;31.40;52.30;;;;;;5028340;28;20033;-78
2022/07/20 10:50:00;;;;;;;11.00;5.78;;;31.60;51.20;;;;;;5090857;28;20364;-77
2022/07/20 10:52:28;;;;;;;6.97;4.65;;;31.70;51.40;;;;;;5109447;28;20070;-79
2022/07/20 10:54:54;;;;;;;9.50;5.25;;;31.80;51.10;;;;;;5109683;28;20519;-78
2022/07/20 10:57:20;;;;;;;7.93;5.20;;;31.80;51.10;;;;;;5108276;28;20032;-79
2022/07/20 10:59:46;;;;;;;8.48;5.15;;;31.90;50.30;;;;;;5109804;28;20028;-79
2022/07/20 11:02:12;;;;;;;7.78;4.60;;;32.00;50.40;;;;;;5109267;28;20030;-78
2022/07/20 11:04:44;;;;;;;8.60;4.57;;;32.10;49.70;;;;;;5109746;28;20024;-78
2022/07/20 11:07:31;;;;;;;6.35;4.22;;;32.20;48.30;;;;;;5109876;28;20483;-78
2022/07/20 11:09:58;;;;;;;7.28;4.38;;;32.30;48.70;;;;;;5108982;28;20523;-78
2022/07/20 11:12:27;;;;;;;6.75;4.65;;;32.40;47.80;;;;;;5110175;28;20045;-79
2022/07/20 11:14:53;;;;;;;6.28;4.53;;;32.60;48.00;;;;;;5110521;28;20036;-79
2022/07/20 11:17:20;;;;;;;6.43;4.70;;;32.80;47.00;;;;;;5107504;28;20031;-78
2022/07/20 11:19:46;;;;;;;7.93;4.15;;;33.00;46.70;;;;;;5110201;28;20027;-78
2022/07/20 11:22:12;;;;;;;10.13;4.63;;;33.30;46.40;;;;;;5112941;28;20020;-79
2022/07/20 11:24:38;;;;;;;11.77;4.57;;;33.90;46.60;;;;;;5114427;28;20111;-78
2022/07/20 11:27:17;;;;;;;5.97;4.07;;;35.20;44.10;;;;;;5113677;28;20108;-78
2022/07/20 11:29:48;;;;;;;11.68;4.60;;;36.80;43.10;;;;;;5113202;28;20027;-78
2022/07/20 11:32:14;;;;;;;9.95;4.63;;;38.30;40.00;;;;;;5112330;28;20028;-78
2022/07/20 11:34:58;;;;;;;5.65;4.57;;;39.40;38.20;;;;;;5114277;28;20505;-78
2022/07/20 11:37:25;;;;;;;9.55;4.40;;;40.50;37.50;;;;;;5115851;28;20100;-80
2022/07/20 11:39:51;;;;;;;5.35;4.28;;;41.80;36.60;;;;;;5117742;28;20032;-79
2022/07/20 11:42:17;;;;;;;8.00;4.25;;;43.10;35.80;;;;;;5121187;28;20039;-80
2022/07/20 11:44:59;;;;;;;7.43;4.40;;;44.50;34.70;;;;;;5113608;28;20023;-75
2022/07/20 11:47:25;;;;;;;4.88;4.00;;;45.40;33.50;;;;;;5112354;28;20042;-78
2022/07/20 11:50:09;;;;;;;7.65;4.32;;;46.20;32.20;;;;;;5117770;28;20008;-80
2022/07/20 11:52:42;;;;;;;8.38;4.28;;;46.70;31.80;;;;;;5111068;28;20095;-78
2022/07/20 11:55:09;;;;;;;5.57;4.32;;;46.20;31.30;;;;;;5111930;28;20032;-78
2022/07/20 11:57:35;;;;;;;5.90;4.43;;;46.20;31.60;;;;;;5111168;28;20034;-78
2022/07/20 12:00:01;;;;;;;6.20;4.25;;;45.30;31.30;;;;;;5110881;28;20020;-79
2022/07/20 12:02:27;;;;;;;9.18;5.15;;;45.00;32.10;;;;;;5112804;28;20073;-79
2022/07/20 12:04:53;;;;;;;4.97;4.45;;;44.30;32.30;;;;;;5116567;28;20020;-79
2022/07/20 12:10:24;;;;;;;10.40;4.57;;;42.90;33.20;;;;;;5114688;28;20023;-77
2022/07/20 12:13:07;;;;;;;5.95;4.40;;;42.70;33.50;;;;;;5114826;28;20075;-78
2022/07/20 12:15:33;;;;;;;5.20;4.05;;;42.60;33.10;;;;;;5113743;28;20032;-79
2022/07/20 12:17:59;;;;;;;6.75;4.55;;;42.90;33.60;;;;;;5115090;28;20032;-79
2022/07/20 12:20:26;;;;;;;4.43;4.00;;;43.10;32.50;;;;;;5113342;28;20027;-77
2022/07/20 12:22:57;;;;;;;10.05;4.88;;;43.20;32.10;;;;;;5113012;28;20019;-77
2022/07/20 12:25:35;;;;;;;6.43;3.88;;;43.40;32.10;;;;;;5114972;28;20027;-78
2022/07/20 12:28:01;;;;;;;6.63;4.38;;;43.10;31.70;;;;;;5113313;28;20028;-78
2022/07/20 12:30:34;;;;;;;6.50;4.50;;;43.30;32.20;;;;;;5113345;28;20085;-78
2022/07/20 12:33:12;;;;;;;5.70;3.95;;;43.30;31.90;;;;;;5109684;28;20028;-80
2022/07/20 12:35:41;;;;;;;5.70;4.35;;;43.60;31.20;;;;;;5112160;28;20024;-78
2022/07/20 12:38:07;;;;;;;;;;;43.90;31.40;;;;;;5111224;28;20080;-78
2022/07/20 12:40:38;;;;;;;6.63;4.10;;;44.00;31.30;;;;;;5114964;28;19911;-79
2022/07/20 12:43:30;;;;;;;5.05;3.70;;;44.30;30.50;;;;;;5112582;28;20115;-80
2022/07/20 12:46:05;;;;;;;7.85;3.33;;;44.40;30.20;;;;;;5106646;27;20401;-79
2022/07/20 12:48:30;;;;;;;4.72;4.10;;;44.20;29.30;;;;;;5115217;28;20102;-77
2022/07/20 12:50:56;;;;;;;14.73;12.52;;;44.50;30.00;;;;;;5118214;28;20058;-77
2022/07/20 12:53:23;;;;;;;29.17;26.20;;;44.50;29.50;;;;;;5118529;28;20055;-79
2022/07/20 12:55:48;;;;;;;10.35;4.10;;;44.60;30.30;;;;;;5113824;28;20027;-80